createdAt,value
2019-02-22T00:00:00.443Z,10.70
2019-02-22T00:02:33.237Z,10.70
2019-02-22T00:05:01.985Z,10.70
2019-02-22T00:07:31.003Z,10.70
2019-02-22T00:09:59.770Z,10.70
2019-02-22T00:12:28.586Z,10.80
2019-02-22T00:14:57.647Z,10.70
2019-02-22T00:17:26.401Z,10.80
2019-02-22T00:19:55.170Z,10.80
2019-02-22T00:22:24.227Z,10.80
2019-02-22T00:24:53.235Z,10.60
2019-02-22T00:27:21.970Z,10.60
2019-02-22T00:29:50.738Z,10.60
2019-02-22T00:32:19.720Z,10.50
2019-02-22T00:34:48.631Z,10.40
2019-02-22T00:37:17.423Z,10.40
2019-02-22T00:39:46.408Z,10.50
2019-02-22T00:42:15.136Z,10.50
2019-02-22T00:44:43.877Z,10.60
2019-02-22T00:47:12.934Z,10.80
2019-02-22T00:49:41.931Z,10.80
2019-02-22T00:52:11.600Z,10.70
2019-02-22T00:54:41.352Z,10.70
2019-02-22T00:57:10.073Z,10.70
2019-02-22T00:59:38.804Z,10.70
2019-02-22T01:02:07.532Z,10.70
2019-02-22T01:04:36.707Z,10.60
2019-02-22T01:07:05.511Z,10.60
2019-02-22T01:09:34.806Z,10.60
2019-02-22T01:12:04.196Z,10.70
2019-02-22T01:14:32.922Z,10.80
2019-02-22T01:17:01.996Z,10.70
2019-02-22T01:19:31.185Z,10.70
2019-02-22T01:22:00.293Z,10.70
2019-02-22T01:24:29.037Z,10.50
2019-02-22T01:26:57.778Z,10.50
2019-02-22T01:29:26.525Z,10.60
2019-02-22T01:31:55.573Z,10.70
2019-02-22T01:34:24.638Z,10.70
2019-02-22T01:36:53.430Z,10.70
2019-02-22T01:39:22.161Z,10.80
2019-02-22T01:41:50.918Z,10.60
2019-02-22T01:44:21.396Z,10.60
2019-02-22T01:46:50.161Z,10.50
2019-02-22T01:49:18.921Z,10.50
2019-02-22T01:51:47.659Z,10.60
2019-02-22T01:54:16.671Z,10.70
2019-02-22T01:56:45.766Z,10.70
2019-02-22T01:59:14.760Z,10.70
2019-02-22T02:01:44.055Z,10.60
2019-02-22T02:04:12.781Z,10.80
2019-02-22T02:06:41.853Z,10.80
2019-02-22T02:09:10.860Z,10.70
2019-02-22T02:11:39.601Z,10.70
2019-02-22T02:14:08.620Z,10.70
2019-02-22T02:16:37.362Z,10.80
2019-02-22T02:19:06.112Z,10.80
2019-02-22T02:21:35.184Z,10.80
2019-02-22T02:24:04.173Z,10.80
2019-02-22T02:26:33.254Z,10.80
2019-02-22T02:29:02.266Z,10.80
2019-02-22T02:31:31.007Z,10.80
2019-02-22T02:33:59.759Z,10.90
2019-02-22T02:36:28.493Z,11.00
2019-02-22T02:38:57.233Z,10.90
2019-02-22T02:41:25.979Z,10.90
2019-02-22T02:43:54.985Z,10.90
2019-02-22T02:46:24.389Z,10.80
2019-02-22T02:48:53.696Z,10.80
2019-02-22T02:51:22.456Z,10.70
2019-02-22T02:53:51.484Z,10.50
2019-02-22T02:56:20.817Z,10.60
2019-02-22T02:58:49.551Z,10.60
2019-02-22T03:01:18.348Z,10.50
2019-02-22T03:03:47.107Z,10.60
2019-02-22T03:06:40.920Z,10.60
2019-02-22T03:09:10.718Z,10.70
2019-02-22T03:11:39.750Z,10.70
2019-02-22T03:14:08.493Z,10.60
2019-02-22T03:16:37.330Z,10.50
2019-02-22T03:19:06.069Z,10.60
2019-02-22T03:21:34.830Z,10.60
2019-02-22T03:24:03.610Z,10.60
2019-02-22T03:26:32.648Z,10.70
2019-02-22T03:29:01.706Z,10.70
2019-02-22T03:31:30.774Z,10.70
2019-02-22T03:33:59.823Z,10.90
2019-02-22T03:36:28.590Z,10.90
2019-02-22T03:38:57.374Z,10.90
2019-02-22T03:41:32.759Z,10.90
2019-02-22T03:43:56.575Z,10.80
2019-02-22T03:46:25.325Z,10.70
2019-02-22T03:48:54.406Z,10.60
2019-02-22T03:51:23.145Z,10.50
2019-02-22T03:54:02.923Z,10.60
2019-02-22T03:56:32.121Z,10.70
2019-02-22T03:59:01.040Z,10.60
2019-02-22T04:01:29.902Z,10.60
2019-02-22T04:03:58.725Z,10.70
2019-02-22T04:06:27.499Z,10.70
2019-02-22T04:08:56.243Z,10.70
2019-02-22T04:11:24.996Z,10.70
2019-02-22T04:13:54.077Z,10.70
2019-02-22T04:16:22.909Z,10.80
2019-02-22T04:18:51.980Z,10.90
2019-02-22T04:21:21.350Z,10.80
2019-02-22T04:23:50.125Z,10.80
2019-02-22T04:26:18.870Z,10.80
2019-02-22T04:28:47.602Z,10.80
2019-02-22T04:31:16.358Z,10.70
2019-02-22T04:33:45.196Z,10.80
2019-02-22T04:36:14.269Z,10.90
2019-02-22T04:38:43.020Z,10.90
2019-02-22T04:41:11.773Z,10.90
2019-02-22T04:43:40.536Z,10.90
2019-02-22T04:46:09.308Z,10.90
2019-02-22T04:48:38.421Z,11.00
2019-02-22T04:51:07.158Z,10.90
2019-02-22T04:53:35.919Z,10.90
2019-02-22T04:56:04.752Z,10.90
2019-02-22T04:58:33.508Z,10.90
2019-02-22T05:01:02.253Z,10.90
2019-02-22T05:03:31.010Z,10.90
2019-02-22T05:06:00.042Z,10.80
2019-02-22T05:08:28.804Z,10.80
2019-02-22T05:10:57.550Z,10.70
2019-02-22T05:13:26.571Z,10.80
2019-02-22T05:15:55.308Z,10.80
2019-02-22T05:18:24.393Z,10.80
2019-02-22T05:20:53.148Z,10.80
2019-02-22T05:23:22.212Z,10.80
2019-02-22T05:25:51.048Z,10.80
2019-02-22T05:28:20.060Z,10.90
2019-02-22T05:30:49.150Z,10.90
2019-02-22T05:33:18.141Z,11.00
2019-02-22T05:35:46.873Z,10.90
2019-02-22T05:38:15.628Z,11.00
2019-02-22T05:40:44.701Z,11.00
2019-02-22T05:43:14.008Z,11.00
2019-02-22T05:45:42.774Z,10.90
2019-02-22T05:48:11.824Z,10.90
2019-02-22T05:50:40.592Z,10.90
2019-02-22T05:53:09.673Z,10.80
2019-02-22T05:55:38.768Z,10.70
2019-02-22T05:58:07.518Z,10.60
2019-02-22T06:00:36.542Z,10.60
2019-02-22T06:03:05.293Z,10.60
2019-02-22T06:05:34.328Z,10.70
2019-02-22T06:08:03.307Z,10.60
2019-02-22T06:10:32.087Z,10.60
2019-02-22T06:13:00.822Z,10.70
2019-02-22T06:15:31.463Z,10.60
2019-02-22T06:18:00.741Z,10.70
2019-02-22T06:20:29.814Z,10.60
2019-02-22T06:22:58.616Z,10.60
2019-02-22T06:25:28.034Z,10.60
2019-02-22T06:27:56.782Z,10.60
2019-02-22T06:30:25.785Z,10.40
2019-02-22T06:32:54.536Z,10.50
2019-02-22T06:35:23.285Z,10.50
2019-02-22T06:37:52.031Z,10.40
2019-02-22T06:40:20.773Z,10.40
2019-02-22T06:42:49.535Z,10.40
2019-02-22T06:45:18.305Z,10.50
2019-02-22T06:47:47.029Z,10.60
2019-02-22T06:50:16.209Z,10.60
2019-02-22T06:52:44.959Z,10.60
2019-02-22T06:55:13.968Z,10.60
2019-02-22T06:57:42.961Z,10.60
2019-02-22T07:00:12.132Z,10.50
2019-02-22T07:02:40.880Z,10.50
2019-02-22T07:05:09.722Z,10.40
2019-02-22T07:07:38.737Z,10.40
2019-02-22T07:10:08.458Z,10.30
2019-02-22T07:12:40.788Z,10.40
2019-02-22T07:15:09.800Z,10.50
2019-02-22T07:17:38.561Z,10.50
2019-02-22T07:20:09.393Z,10.40
2019-02-22T07:22:38.165Z,10.40
2019-02-22T07:25:08.712Z,10.30
2019-02-22T07:27:37.939Z,10.30
2019-02-22T07:30:07.405Z,10.30
2019-02-22T07:32:36.169Z,10.30
2019-02-22T07:35:05.605Z,10.20
2019-02-22T07:37:35.140Z,10.10
2019-02-22T07:40:04.261Z,10.10
2019-02-22T07:42:33.037Z,10.10
2019-02-22T07:45:02.054Z,10.10
2019-02-22T07:47:30.797Z,10.10
2019-02-22T07:49:59.557Z,10.10
2019-02-22T07:52:28.645Z,10.20
2019-02-22T07:54:57.426Z,10.10
2019-02-22T07:57:26.495Z,10.00
2019-02-22T07:59:55.514Z,10.00
2019-02-22T08:02:24.558Z,10.10
2019-02-22T08:04:53.659Z,10.10
2019-02-22T08:07:22.485Z,10.10
2019-02-22T08:09:51.542Z,10.00
2019-02-22T08:12:20.321Z,10.00
2019-02-22T08:14:49.296Z,9.80
2019-02-22T08:17:18.049Z,9.90
2019-02-22T08:19:47.205Z,9.90
2019-02-22T08:22:15.951Z,9.90
2019-02-22T08:24:44.968Z,9.70
2019-02-22T08:27:13.792Z,9.70
2019-02-22T08:29:42.790Z,9.70
2019-02-22T08:32:11.573Z,9.70
2019-02-22T08:34:40.636Z,9.70
2019-02-22T08:37:09.742Z,9.60
2019-02-22T08:39:38.539Z,9.60
2019-02-22T08:42:07.322Z,9.50
2019-02-22T08:44:36.063Z,9.40
2019-02-22T08:47:04.928Z,9.20
2019-02-22T08:49:33.668Z,9.00
2019-02-22T08:52:02.426Z,8.80
2019-02-22T08:54:31.176Z,8.80
2019-02-22T08:57:00.256Z,8.80
2019-02-22T08:59:28.984Z,8.90
2019-02-22T09:01:58.031Z,8.80
2019-02-22T09:04:27.132Z,8.70
2019-02-22T09:06:56.634Z,8.70
2019-02-22T09:09:25.858Z,8.80
2019-02-22T09:11:57.462Z,8.80
2019-02-22T09:14:25.581Z,8.70
2019-02-22T09:16:54.644Z,8.80
2019-02-22T09:19:23.940Z,8.80
2019-02-22T09:21:52.689Z,8.90
2019-02-22T09:24:21.454Z,9.10
2019-02-22T09:26:50.270Z,9.20
2019-02-22T09:29:19.316Z,9.30
2019-02-22T09:31:48.116Z,9.40
2019-02-22T09:34:16.857Z,9.40
2019-02-22T09:36:45.622Z,9.40
2019-02-22T09:39:14.944Z,9.40
2019-02-22T09:41:43.976Z,9.40
2019-02-22T09:44:12.771Z,9.30
2019-02-22T09:46:41.816Z,9.30
2019-02-22T09:49:10.557Z,9.10
2019-02-22T09:51:41.192Z,8.80
2019-02-22T09:54:09.849Z,8.40
2019-02-22T09:56:38.592Z,8.10
2019-02-22T09:59:07.919Z,7.90
2019-02-22T10:01:36.963Z,7.60
2019-02-22T10:04:05.836Z,7.30
2019-02-22T10:06:35.585Z,7.20
2019-02-22T10:09:05.692Z,7.10
2019-02-22T10:11:34.882Z,7.10
2019-02-22T10:14:06.792Z,7.00
2019-02-22T10:16:34.362Z,6.90
2019-02-22T10:19:03.490Z,6.80
2019-02-22T10:21:32.863Z,6.70
2019-02-22T10:24:02.264Z,6.80
2019-02-22T10:26:31.333Z,6.70
2019-02-22T10:29:00.191Z,6.60
2019-02-22T10:31:28.944Z,6.60
2019-02-22T10:33:58.009Z,6.60
2019-02-22T10:36:27.020Z,6.80
2019-02-22T10:38:56.422Z,7.00
2019-02-22T10:41:25.171Z,7.10
2019-02-22T10:43:54.322Z,7.20
2019-02-22T10:46:23.113Z,7.30
2019-02-22T10:48:52.498Z,7.50
2019-02-22T10:51:21.245Z,7.30
2019-02-22T10:53:50.282Z,7.30
2019-02-22T10:56:19.237Z,7.40
2019-02-22T10:58:48.268Z,7.20
2019-02-22T11:01:17.018Z,7.10
2019-02-22T11:03:45.769Z,7.10
2019-02-22T11:06:14.932Z,7.10
2019-02-22T11:08:44.068Z,7.10
2019-02-22T11:11:12.808Z,6.90
2019-02-22T11:13:41.905Z,6.90
2019-02-22T11:16:11.104Z,6.70
2019-02-22T11:18:39.849Z,6.50
2019-02-22T11:21:09.171Z,6.50
2019-02-22T11:23:37.931Z,6.60
2019-02-22T11:26:06.982Z,6.40
2019-02-22T11:28:36.384Z,6.30
2019-02-22T11:31:05.209Z,6.20
2019-02-22T11:33:33.955Z,6.20
2019-02-22T11:36:03.071Z,6.10
2019-02-22T11:38:31.850Z,6.10
2019-02-22T11:41:00.601Z,6.00
2019-02-22T11:43:29.343Z,5.90
2019-02-22T11:45:58.169Z,5.80
2019-02-22T11:48:27.169Z,5.70
2019-02-22T11:50:55.936Z,5.70
2019-02-22T11:53:24.968Z,5.60
2019-02-22T11:55:54.070Z,5.50
2019-02-22T11:58:23.059Z,5.60
2019-02-22T12:00:51.807Z,5.70
2019-02-22T12:03:24.766Z,5.60
2019-02-22T12:05:51.273Z,5.60
2019-02-22T12:08:20.265Z,5.60
2019-02-22T12:10:49.569Z,5.60
2019-02-22T12:13:18.304Z,5.50
2019-02-22T12:15:47.349Z,5.60
2019-02-22T12:18:16.442Z,5.80
2019-02-22T12:20:45.529Z,5.90
2019-02-22T12:23:14.262Z,6.10
2019-02-22T12:25:44.562Z,6.00
2019-02-22T12:28:13.490Z,5.90
2019-02-22T12:30:42.928Z,6.00
2019-02-22T12:33:11.755Z,6.30
2019-02-22T12:35:40.838Z,6.60
2019-02-22T12:38:09.922Z,6.80
2019-02-22T12:40:39.118Z,7.00
2019-02-22T12:43:08.295Z,7.00
2019-02-22T12:45:37.409Z,7.00
2019-02-22T12:48:06.151Z,7.10
2019-02-22T12:50:34.921Z,7.20
2019-02-22T12:53:04.170Z,7.20
2019-02-22T12:55:33.286Z,7.00
2019-02-22T12:58:02.367Z,6.80
2019-02-22T13:00:31.107Z,6.90
2019-02-22T13:03:02.303Z,6.90
2019-02-22T13:05:30.661Z,6.60
2019-02-22T13:07:59.784Z,6.50
2019-02-22T13:10:28.555Z,6.70
2019-02-22T13:12:57.308Z,6.90
2019-02-22T13:15:26.446Z,6.90
2019-02-22T13:17:55.197Z,7.10
2019-02-22T13:20:23.942Z,7.10
2019-02-22T13:22:52.688Z,7.10
2019-02-22T13:25:21.728Z,7.00
2019-02-22T13:27:50.525Z,6.90
2019-02-22T13:30:19.320Z,6.90
2019-02-22T13:32:48.390Z,7.00
2019-02-22T13:35:17.468Z,6.90
2019-02-22T13:37:46.507Z,6.90
2019-02-22T13:40:15.408Z,6.90
2019-02-22T13:42:44.575Z,6.80
2019-02-22T13:45:25.548Z,6.90
2019-02-22T13:47:44.429Z,6.90
2019-02-22T13:50:14.329Z,6.90
2019-02-22T13:52:43.585Z,6.90
2019-02-22T13:55:13.301Z,6.60
2019-02-22T13:57:42.074Z,6.50
2019-02-22T14:00:14.116Z,6.60
2019-02-22T14:02:43.573Z,6.70
2019-02-22T14:05:13.126Z,6.80
2019-02-22T14:07:51.372Z,6.80
2019-02-22T14:10:21.080Z,6.60
2019-02-22T14:12:50.166Z,6.70
2019-02-22T14:15:19.063Z,6.80
2019-02-22T14:17:48.188Z,6.90
2019-02-22T14:20:17.043Z,7.00
2019-02-22T14:22:46.082Z,7.10
2019-02-22T14:25:15.129Z,7.20
2019-02-22T14:27:44.134Z,7.20
2019-02-22T14:30:13.641Z,6.90
2019-02-22T14:32:42.756Z,6.60
2019-02-22T14:35:11.494Z,6.50
2019-02-22T14:37:40.916Z,6.40
2019-02-22T14:40:10.426Z,6.50
2019-02-22T14:42:39.230Z,6.70
2019-02-22T14:45:09.015Z,6.80
2019-02-22T14:47:38.116Z,6.90
2019-02-22T14:50:09.784Z,6.70
2019-02-22T14:52:38.862Z,6.50
2019-02-22T14:55:08.693Z,6.60
2019-02-22T14:57:37.426Z,6.60
2019-02-22T15:00:09.477Z,6.60
2019-02-22T15:02:38.521Z,5.90
2019-02-22T15:05:09.140Z,5.70
2019-02-22T15:07:38.447Z,5.80
2019-02-22T15:10:08.066Z,6.00
2019-02-22T15:12:37.135Z,6.30
2019-02-22T15:15:07.241Z,6.40
2019-02-22T15:17:51.724Z,6.60
2019-02-22T15:20:20.478Z,6.50
2019-02-22T15:22:49.615Z,6.50
2019-02-22T15:25:18.396Z,6.50
2019-02-22T15:27:47.262Z,6.40
2019-02-22T15:30:16.808Z,6.50
2019-02-22T15:32:45.662Z,6.40
2019-02-22T15:35:14.520Z,6.50
2019-02-22T15:37:43.637Z,6.30
2019-02-22T15:40:12.976Z,6.20
2019-02-22T15:42:42.124Z,6.30
2019-02-22T15:45:12.547Z,6.20
2019-02-22T15:47:41.275Z,5.80
2019-02-22T15:50:12.338Z,5.60
2019-02-22T15:52:41.091Z,5.80
2019-02-22T15:55:10.016Z,5.80
2019-02-22T15:57:39.732Z,5.90
2019-02-22T16:00:11.931Z,6.00
2019-02-22T16:02:40.681Z,6.10
2019-02-22T16:05:22.558Z,6.20
2019-02-22T16:07:51.303Z,6.20
2019-02-22T16:10:21.576Z,6.20
2019-02-22T16:12:50.873Z,6.30
2019-02-22T16:15:19.973Z,6.20
2019-02-22T16:17:48.884Z,6.10
2019-02-22T16:20:17.850Z,6.10
2019-02-22T16:22:46.963Z,6.20
2019-02-22T16:25:19.564Z,6.10
2019-02-22T16:27:47.080Z,6.10
2019-02-22T16:30:18.000Z,6.00
2019-02-22T16:32:47.106Z,6.00
2019-02-22T16:35:15.919Z,5.70
2019-02-22T16:37:45.004Z,5.70
2019-02-22T16:40:13.832Z,5.80
2019-02-22T16:42:42.884Z,5.70
2019-02-22T16:45:12.095Z,5.70
2019-02-22T16:47:41.356Z,5.70
2019-02-22T16:50:11.561Z,5.60
2019-02-22T16:52:40.391Z,5.60
2019-02-22T16:55:11.867Z,5.70
2019-02-22T16:57:40.925Z,5.80
2019-02-22T17:00:11.765Z,5.90
2019-02-22T17:02:40.796Z,6.10
2019-02-22T17:05:11.700Z,6.10
2019-02-22T17:07:40.705Z,6.10
2019-02-22T17:10:10.688Z,6.10
2019-02-22T17:12:39.600Z,6.00
2019-02-22T17:15:09.664Z,5.90
2019-02-22T17:17:39.145Z,5.90
2019-02-22T17:20:09.574Z,5.80
2019-02-22T17:22:38.401Z,5.70
2019-02-22T17:25:09.010Z,5.90
2019-02-22T17:27:38.080Z,5.90
2019-02-22T17:30:08.098Z,6.00
2019-02-22T17:32:36.842Z,6.00
2019-02-22T17:35:06.320Z,5.90
2019-02-22T17:37:35.427Z,5.70
2019-02-22T17:40:04.515Z,5.70
2019-02-22T17:42:33.250Z,5.80
2019-02-22T17:45:02.294Z,5.90
2019-02-22T17:47:31.024Z,5.90
2019-02-22T17:49:59.767Z,5.90
2019-02-22T17:52:28.497Z,6.00
2019-02-22T17:54:57.587Z,5.90
2019-02-22T17:57:26.327Z,5.90
2019-02-22T17:59:55.301Z,5.80
2019-02-22T18:02:24.040Z,5.80
2019-02-22T18:04:53.051Z,5.90
2019-02-22T18:07:22.040Z,6.00
2019-02-22T18:09:51.098Z,6.10
2019-02-22T18:12:19.882Z,6.20
2019-02-22T18:14:48.640Z,6.30
2019-02-22T18:17:17.386Z,6.20
2019-02-22T18:19:46.111Z,6.30
2019-02-22T18:22:25.206Z,6.30
2019-02-22T18:24:45.321Z,6.30
2019-02-22T18:27:14.079Z,6.40
2019-02-22T18:29:43.092Z,6.40
2019-02-22T18:32:11.900Z,6.40
2019-02-22T18:34:40.684Z,6.40
2019-02-22T18:37:09.433Z,6.30
2019-02-22T18:39:38.160Z,6.30
2019-02-22T18:42:07.317Z,6.20
2019-02-22T18:44:36.070Z,6.20
2019-02-22T18:47:04.900Z,6.20
2019-02-22T18:49:33.633Z,6.20
2019-02-22T18:52:02.688Z,6.10
2019-02-22T18:54:31.421Z,6.10
2019-02-22T18:57:00.425Z,6.00
2019-02-22T18:59:29.181Z,6.00
2019-02-22T19:01:57.950Z,6.00
2019-02-22T19:04:26.693Z,6.00
2019-02-22T19:06:55.454Z,5.90
2019-02-22T19:09:24.472Z,5.80
2019-02-22T19:11:53.524Z,5.80
2019-02-22T19:14:22.278Z,5.80
2019-02-22T19:16:51.017Z,5.90
2019-02-22T19:19:19.763Z,5.90
2019-02-22T19:21:48.847Z,5.80
2019-02-22T19:24:17.914Z,5.80
2019-02-22T19:26:46.670Z,5.70
2019-02-22T19:29:15.422Z,5.80
2019-02-22T19:31:44.523Z,5.80
2019-02-22T19:34:13.612Z,5.80
2019-02-22T19:36:42.718Z,5.90
2019-02-22T19:39:11.458Z,5.80
2019-02-22T19:41:40.205Z,5.70
2019-02-22T19:44:09.191Z,5.60
2019-02-22T19:46:38.303Z,5.60
2019-02-22T19:49:07.372Z,5.60
2019-02-22T19:51:36.119Z,5.40
2019-02-22T19:54:05.140Z,5.40
2019-02-22T19:56:34.220Z,5.30
2019-02-22T19:59:02.945Z,5.40
2019-02-22T20:01:31.689Z,5.50
2019-02-22T20:04:01.094Z,5.50
2019-02-22T20:06:30.200Z,5.60
2019-02-22T20:08:58.932Z,5.70
2019-02-22T20:11:28.008Z,5.70
2019-02-22T20:13:57.151Z,5.60
2019-02-22T20:16:25.901Z,5.60
2019-02-22T20:18:54.926Z,5.50
2019-02-22T20:21:23.967Z,5.50
2019-02-22T20:23:53.088Z,5.50
2019-02-22T20:26:21.917Z,5.50
2019-02-22T20:28:50.652Z,5.50
2019-02-22T20:31:20.573Z,5.50
2019-02-22T20:33:50.261Z,5.40
2019-02-22T20:36:28.035Z,5.30
2019-02-22T20:38:50.019Z,5.20
2019-02-22T20:41:18.776Z,5.20
2019-02-22T20:43:47.762Z,5.10
2019-02-22T20:46:16.829Z,5.00
2019-02-22T20:48:45.600Z,5.00
2019-02-22T20:51:14.634Z,4.90
2019-02-22T20:53:43.706Z,4.90
2019-02-22T20:56:12.442Z,4.90
2019-02-22T20:58:41.202Z,4.90
2019-02-22T21:01:14.772Z,4.80
2019-02-22T21:03:40.663Z,4.90
2019-02-22T21:06:09.693Z,4.80
2019-02-22T21:08:38.436Z,4.80
2019-02-22T21:11:07.507Z,4.80
2019-02-22T21:13:36.265Z,4.80
2019-02-22T21:16:05.091Z,4.70
2019-02-22T21:18:33.845Z,4.70
2019-02-22T21:21:02.588Z,4.80
2019-02-22T21:23:31.356Z,4.80
2019-02-22T21:26:00.758Z,4.80
2019-02-22T21:28:29.538Z,4.80
2019-02-22T21:30:58.610Z,4.70
2019-02-22T21:33:27.466Z,4.70
2019-02-22T21:35:56.514Z,4.70
2019-02-22T21:38:25.305Z,4.60
2019-02-22T21:40:54.185Z,4.60
2019-02-22T21:43:23.024Z,4.50
2019-02-22T21:45:52.202Z,4.60
2019-02-22T21:48:27.520Z,4.70
2019-02-22T21:50:51.755Z,4.70
2019-02-22T21:53:20.513Z,4.60
2019-02-22T21:55:49.267Z,4.60
2019-02-22T21:58:18.089Z,4.60
2019-02-22T22:00:46.830Z,4.50
2019-02-22T22:03:15.934Z,4.40
2019-02-22T22:05:44.710Z,4.30
2019-02-22T22:08:13.546Z,4.40
2019-02-22T22:10:42.340Z,4.40
2019-02-22T22:13:11.137Z,4.30
2019-02-22T22:15:39.915Z,4.00
2019-02-22T22:18:08.683Z,3.90
2019-02-22T22:20:37.444Z,3.90
2019-02-22T22:23:06.597Z,3.90
2019-02-22T22:25:35.384Z,3.70
2019-02-22T22:28:04.165Z,3.70
2019-02-22T22:30:32.944Z,3.60
2019-02-22T22:33:01.745Z,3.60
2019-02-22T22:35:31.105Z,3.60
2019-02-22T22:37:59.874Z,3.80
2019-02-22T22:40:28.701Z,3.80
2019-02-22T22:42:57.472Z,3.70
2019-02-22T22:45:26.318Z,3.80
2019-02-22T22:47:55.237Z,3.90
2019-02-22T22:50:24.354Z,3.80
2019-02-22T22:52:53.143Z,3.80
2019-02-22T22:55:22.232Z,3.80
2019-02-22T22:57:50.974Z,3.80
2019-02-22T23:01:05.406Z,3.90
2019-02-22T23:03:34.914Z,3.80
2019-02-22T23:06:03.965Z,3.80
2019-02-22T23:08:32.815Z,3.80
2019-02-22T23:11:01.912Z,3.70
2019-02-22T23:13:30.682Z,3.70
2019-02-22T23:16:00.046Z,3.70
2019-02-22T23:18:29.124Z,3.70
2019-02-22T23:20:57.955Z,3.80
2019-02-22T23:23:27.750Z,3.80
2019-02-22T23:25:56.541Z,3.80
2019-02-22T23:28:25.283Z,4.00
2019-02-22T23:30:54.421Z,4.00
2019-02-22T23:33:23.495Z,4.20
2019-02-22T23:35:52.266Z,4.10
2019-02-22T23:38:21.105Z,4.20
2019-02-22T23:40:50.206Z,4.20
2019-02-22T23:43:18.992Z,4.30
2019-02-22T23:45:47.982Z,4.30
2019-02-22T23:48:16.712Z,4.20
2019-02-22T23:50:45.506Z,4.00
2019-02-22T23:53:14.218Z,4.00
2019-02-22T23:55:42.946Z,4.00
2019-02-22T23:58:11.959Z,4.00
